10 augustus 2022

Tijd Code Weer Temp. Zicht Plafond Wind METAR/SPECI
6:00 a.m.
V
63 °F 15 mi 12.000 ft 350° 350° 3 kt METAR CYYC 101200Z 35003KT 280V010 15SM BKN120 BKN140 17/09 A3012 RMK AC6AS1 SLP191 DENSITY ALT 4500FT
5:35 a.m.
V
63 °F 15 mi 11.000 ft 150° 150° 2 kt METAR CYYC 101135Z 15002KT 15SM BKN110 17/09 A3012 RMK AC7 SLP190 DENSITY ALT 4500FT
5:17 a.m.
V
63 °F 15 mi 12.000 ft 160° 160° 7 kt METAR CYYC 101117Z 16007KT 15SM -RA FEW096 BKN120 17/09 A3012 RMK AC1AS6 SLP187 DENSITY ALT 4500FT
5:00 a.m.
V
64 °F 15 mi 12.000 ft 120° 120° 5 kt METAR CYYC 101100Z 12005KT 080V150 15SM BKN120 18/08 A3012 RMK AS7 SLP187 DENSITY ALT 4600FT
4:00 a.m.
V
63 °F 15 mi 12.000 ft 160° 160° 5 kt METAR CYYC 101000Z 16005KT 15SM BKN120 17/08 A3013 RMK AC6 SLP190 DENSITY ALT 4500FT
3:00 a.m.
V
66 °F 15 mi 15.000 ft 160° 160° 7 kt METAR CYYC 100900Z 16007KT 15SM FEW120 BKN150 19/08 A3013 RMK AC2AC4 SLP189 DENSITY ALT 4700FT
2:00 a.m.
V
68 °F 15 mi 15.000 ft 150° 150° 7 kt METAR CYYC 100800Z 15007KT 15SM FEW120 BKN150 20/08 A3013 RMK AC2AC3 SLP190 DENSITY ALT 4800FT
1:00 a.m.
V
68 °F 15 mi 12.000 ft 160° 160° 11 kt METAR CYYC 100700Z 16011KT 15SM FEW082 BKN120 20/07 A3014 RMK AC1AC5 SLP195 DENSITY ALT 4900FT
12:27 a.m.
V
70 °F 15 mi 12.000 ft 170° 170° 5 - 15 kt METAR CYYC 100627Z 17005G15KT 15SM BKN120 21/07 A3015 RMK AC6 SLP198 DENSITY ALT 4900FT
12:00 a.m.
V
70 °F 15 mi 13.000 ft 150° 150° 11 - 19 kt METAR CYYC 100600Z 15011G19KT 15SM -RA SCT080 BKN130 21/08 A3015 RMK AC3AS4 SLP199 DENSITY ALT 4900FT

9 augustus 2022

Tijd Code Weer Temp. Zicht Plafond Wind METAR/SPECI
11:22 p.m.
V
72 °F 15 mi 9.100 ft 150° 150° 11 kt METAR CYYC 100522Z 15011KT 15SM -RA FEW050 BKN091 BKN150 22/07 A3015 RMK SC1AC5AC1 SLP200 DENSITY ALT 5000FT
11:00 p.m.
V
72 °F 15 mi 13.000 ft 130° 130° 10 kt METAR CYYC 100500Z 13010KT 15SM FEW073 SCT100 BKN130 22/07 A3014 RMK AC1AC3AC3 AC TR SLP197 DENSITY ALT 5000FT
10:00 p.m.
V
72 °F 15 mi 8.900 ft 130° 130° 8 kt METAR CYYC 100400Z 13008KT 15SM BKN089 BKN110 22/07 A3014 RMK AC5AC2 SLP198 DENSITY ALT 5100FT
9:00 p.m.
V
73 °F 20 mi 13.000 ft 120° 120° 8 kt METAR CYYC 100300Z 12008KT 20SM BKN130 23/07 A3012 RMK AC7 SLP193 DENSITY ALT 5100FT
8:00 p.m.
V
73 °F 20 mi 16.000 ft 110° 110° 12 kt METAR CYYC 100200Z 11012KT 20SM BKN160 BKN210 23/08 A3012 RMK AC6CI1 SLP194 DENSITY ALT 5200FT
7:00 p.m.
V
75 °F 15 mi 22.000 ft 130° 130° 15 kt METAR CYYC 100100Z 13015KT 15SM BKN220 24/07 A3012 RMK CI7 SLP195 DENSITY ALT 5300FT
6:00 p.m.
V
79 °F 15 mi 24.000 ft 120° 120° 12 - 18 kt METAR CYYC 100000Z 12012G18KT 15SM OVC240 26/07 A3012 RMK CI8 SLP192 DENSITY ALT 5500FT
5:00 p.m.
V
79 °F 15 mi 30.000 ft 140° 140° 11 - 16 kt METAR CYYC 092300Z 14011G16KT 15SM BKN300 26/06 A3012 RMK CI7 SLP189 DENSITY ALT 5500FT
4:00 p.m.
V
81 °F 15 mi - 140° 140° 12 - 20 kt METAR CYYC 092200Z 14012G20KT 120V180 15SM FEW230 27/05 A3012 RMK CI2 SLP191 DENSITY ALT 5600FT
3:00 p.m.
V
79 °F 15 mi - 170° 170° 14 - 19 kt METAR CYYC 092100Z 17014G19KT 15SM FEW230 26/05 A3013 RMK CI1 SLP194 DENSITY ALT 5500FT
2:00 p.m.
V
77 °F 15 mi - 160° 160° 14 - 22 kt METAR CYYC 092000Z 16014G22KT 15SM FEW230 25/06 A3015 RMK CI1 SLP200 DENSITY ALT 5400FT
1:00 p.m.
V
75 °F 15 mi - 160° 160° 14 - 21 kt METAR CYYC 091900Z 16014G21KT 15SM FEW190 24/05 A3017 RMK AC1 SLP209 DENSITY ALT 5200FT
12:00 p.m.
V
72 °F 15 mi - 180° 180° 17 - 22 kt METAR CYYC 091800Z 18017G22KT 15SM FEW150 22/05 A3019 RMK AC1 AC TR SLP217 DENSITY ALT 5000FT
11:00 a.m.
V
70 °F 10 mi - 180° 180° 16 - 22 kt METAR CYYC 091700Z 18016G22KT 10SM SKC 21/06 A3020 RMK SLP223 DENSITY ALT 4800FT
10:00 a.m.
V
66 °F 10 mi - 170° 170° 15 kt METAR CYYC 091600Z 17015KT 10SM SKC 19/07 A3020 RMK SLP228 DENSITY ALT 4600FT
9:00 a.m.
V
63 °F 10 mi - 170° 170° 13 - 18 kt METAR CYYC 091500Z 17013G18KT 10SM FEW150 17/07 A3021 RMK AC1 AC TR SLP230 DENSITY ALT 4400FT
8:00 a.m.
V
61 °F 15 mi - 160° 160° 10 kt METAR CYYC 091400Z 16010KT 15SM FEW150 16/07 A3022 RMK AC1 AC TR SLP232 DENSITY ALT 4200FT
7:00 a.m.
V
57 °F 30 mi - 160° 160° 9 kt METAR CYYC 091300Z 16009KT 30SM SCT050 14/07 A3021 RMK SC4 SLP230 DENSITY ALT 4100FT
6:00 a.m.
V
59 °F 15 mi - 150° 150° 9 kt METAR CYYC 091200Z 15009KT 15SM FEW053 15/07 A3021 RMK SC2 SLP228 DENSITY ALT 4100FT
5:00 a.m.
V
61 °F 15 mi 5.500 ft 160° 160° 11 kt METAR CYYC 091100Z 16011KT 15SM BKN055 16/07 A3021 RMK SC7 SLP225 DENSITY ALT 4200FT
4:00 a.m.
V
61 °F 15 mi 5.600 ft 170° 170° 8 kt METAR CYYC 091000Z 17008KT 15SM BKN056 16/07 A3021 RMK SC7 SLP222 DENSITY ALT 4300FT
3:00 a.m.
V
61 °F 15 mi 5.200 ft 140° 140° 7 kt METAR CYYC 090900Z 14007KT 15SM BKN052 16/07 A3021 RMK SC7 SLP221 DENSITY ALT 4300FT
2:00 a.m.
V
61 °F 15 mi 4.700 ft 110° 110° 6 kt METAR CYYC 090800Z 11006KT 15SM BKN047 16/07 A3020 RMK SC7 SLP220 DENSITY ALT 4300FT
1:00 a.m.
V
63 °F 15 mi 4.700 ft 080° 080° 4 kt METAR CYYC 090700Z 08004KT 15SM BKN047 17/06 A3019 RMK SC7 SLP213 DENSITY ALT 4400FT
12:00 a.m.
V
63 °F 15 mi 4.700 ft 060° 060° 5 kt METAR CYYC 090600Z 06005KT 15SM BKN047 17/06 A3017 RMK SC7 SLP204 DENSITY ALT 4400FT

8 augustus 2022

Tijd Code Weer Temp. Zicht Plafond Wind METAR/SPECI
11:00 p.m.
V
61 °F 15 mi 5.000 ft 050° 050° 5 kt METAR CYYC 090500Z 05005KT 15SM BKN050 16/07 A3016 RMK SC7 SLP201 DENSITY ALT 4400FT
10:00 p.m.
V
63 °F 15 mi - 050° 050° 9 kt METAR CYYC 090400Z 05009KT 15SM FEW036 17/08 A3013 RMK SC1 SC TR SLP193 DENSITY ALT 4500FT
9:00 p.m.
V
66 °F 20 mi - 050° 050° 11 kt METAR CYYC 090300Z 05011KT 20SM FEW044 19/09 A3010 RMK SC1 SC TR SLP184 DENSITY ALT 4700FT
8:00 p.m.
V
70 °F 20 mi - 030° 030° 12 kt METAR CYYC 090200Z 03012KT 20SM FEW045 21/09 A3007 RMK SC1 SC TR SLP176 DENSITY ALT 5000FT
7:00 p.m.
V
72 °F 15 mi - 030° 030° 13 kt METAR CYYC 090100Z 03013KT 15SM SKC 22/10 A3005 RMK SLP169 DENSITY ALT 5200FT
6:00 p.m.
V
73 °F 15 mi - 040° 040° 17 kt METAR CYYC 090000Z 04017KT 15SM FEW100 23/11 A3004 RMK AC1 AC TR SLP164 DENSITY ALT 5300FT
5:00 p.m.
V
77 °F 15 mi - 030° 030° 18 kt METAR CYYC 082300Z 03018KT 15SM FEW100 25/12 A3001 RMK AC1 AC TR SLP155 DENSITY ALT 5500FT
4:00 p.m.
V
77 °F 15 mi - 010° 010° 18 - 24 kt METAR CYYC 082200Z 01018G24KT 15SM FEW100 25/12 A3000 RMK AC1 AC TR SLP149 DENSITY ALT 5500FT
3:00 p.m.
V
77 °F 15 mi - 010° 010° 16 - 22 kt METAR CYYC 082100Z 01016G22KT 15SM FEW100 25/12 A3000 RMK AC1 AC TR SLP140 DENSITY ALT 5500FT
2:00 p.m.
V
77 °F 15 mi - 010° 010° 20 kt METAR CYYC 082000Z 01020KT 15SM FEW100 25/11 A2999 RMK AC1 AC TR SLP137 DENSITY ALT 5500FT
1:00 p.m.
V
79 °F 15 mi - 020° 020° 20 - 26 kt METAR CYYC 081900Z 02020G26KT 15SM FEW100 26/10 A2997 RMK AC1 AC TR SLP128 DENSITY ALT 5600FT
12:00 p.m.
V
82 °F 15 mi - 280° 280° 13 kt METAR CYYC 081800Z 28013KT 15SM FEW100 28/04 A2996 RMK AC1 AC TR SLP120 DENSITY ALT 5900FT
11:00 a.m.
V
82 °F 15 mi - 290° 290° 10 kt METAR CYYC 081700Z 29010KT 200V300 15SM FEW100 28/05 A2996 RMK AC1 AC TR SLP123 DENSITY ALT 5900FT
10:00 a.m.
V
79 °F 15 mi - 260° 260° 8 kt METAR CYYC 081600Z 26008KT 15SM SKC 26/05 A2997 RMK SLP125 DENSITY ALT 5700FT
9:00 a.m.
V
72 °F 15 mi - 200° 200° 6 kt METAR CYYC 081500Z 20006KT 15SM SKC 22/08 A2997 RMK SLP132 DENSITY ALT 5200FT
Oudere gegevens

Met cookies volgen wij en derde partijen jouw internetgedrag binnen onze site. Als je verdergaat gaan we ervan uit dat je dit goedvindt. Meer info